LavenderCAM.net
Leatherhead Weather
 
 





Member of StrikeStar EU

Aviation weather for

London Heathrow (EGLL) and London Gatwick (EGKK)



London Heathrow (EGLL) METAR / Surface Actual
London / Heathrow Airport, United Kingdom (EGLL) 51-29N 000-27W 0M
Feb 21, 2018 - 08:50 PM EST / 2018.02.22 0150 UTC
Wind: from the NE (050 degrees) at 6 MPH (5 KT):0
Visibility: greater than 7 mile(s):0
Sky conditions: overcast
Temperature: 39 F (4 C)
Dew Point: 35 F (2 C)
Relative Humidity: 86%
Pressure (altimeter): 30.27 in. Hg (1025 hPa)
ob: EGLL 220150Z AUTO 05005KT 9999 FEW022 OVC042 04/02 Q1025 NOSIG
cycle: 2
London Heathrow (EGLL) TAF / Forecast
2018/02/21 18:20
TAF EGLL 211700Z 2118/2224 04006KT 8000 SCT025 PROB40 
      TEMPO 2123/2208 4000 BR 
      BECMG 2207/2210 9999


London Gatwick (EGKK) METAR / Surface Actual
London / Gatwick Airport, United Kingdom (EGKK) 51-09N 000-11W 0M
Feb 21, 2018 - 08:50 PM EST / 2018.02.22 0150 UTC
Wind: from the NE (040 degrees) at 8 MPH (7 KT):0
Visibility: 2 mile(s):0
Sky conditions: mostly cloudy
Weather: haze
Temperature: 39 F (4 C)
Dew Point: 35 F (2 C)
Relative Humidity: 86%
Pressure (altimeter): 30.24 in. Hg (1024 hPa)
ob: EGKK 220150Z 04007KT 4500 HZ BKN012 04/02 Q1024
cycle: 2
London Gatwick (EGKK) TAF / Forecast
2018/02/21 22:41
TAF 
      AMD EGKK 212234Z 2122/2224 04008KT 3500 DZ BR BKN010 
      BECMG 2123/2202 8000 NSW SCT020 PROB30 2202/2207 4000 BR 
      BECMG 2207/2210 9999